createdAt,value
2023-01-29T00:03:15.416Z,-1.72
2023-01-29T00:08:16.331Z,-1.76
2023-01-29T00:13:17.503Z,-1.96
2023-01-29T00:18:18.225Z,-2.09
2023-01-29T00:23:19.114Z,-1.82
2023-01-29T00:28:19.889Z,-1.82
2023-01-29T00:33:20.789Z,-1.66
2023-01-29T00:38:21.648Z,-1.76
2023-01-29T00:43:41.367Z,-1.79
2023-01-29T00:48:42.157Z,-1.78
2023-01-29T00:53:44.791Z,-1.70
2023-01-29T00:58:45.528Z,-1.72
2023-01-29T01:03:46.307Z,-1.77
2023-01-29T01:09:05.658Z,-1.93
2023-01-29T01:14:06.495Z,-1.99
2023-01-29T01:19:07.440Z,-2.25
2023-01-29T01:24:08.311Z,-2.19
2023-01-29T01:29:09.214Z,-2.13
2023-01-29T01:34:10.106Z,-1.95
2023-01-29T01:39:10.986Z,-2.01
2023-01-29T01:44:49.650Z,-2.15
2023-01-29T01:49:52.524Z,-2.27
2023-01-29T01:54:53.545Z,-2.20
2023-01-29T02:00:09.200Z,-2.10
2023-01-29T02:05:32.611Z,-2.14
2023-01-29T02:10:42.536Z,-2.44
2023-01-29T02:15:47.898Z,-2.59
2023-01-29T02:21:49.943Z,-2.78
2023-01-29T02:27:31.145Z,-2.71
2023-01-29T02:32:53.800Z,-2.46
2023-01-29T02:38:08.692Z,-2.32
2023-01-29T02:43:28.230Z,-2.26
2023-01-29T02:48:40.970Z,-2.24
2023-01-29T02:54:10.217Z,-2.20
2023-01-29T02:59:19.090Z,-2.12
2023-01-29T03:04:26.786Z,-2.18
2023-01-29T03:09:34.159Z,-2.37
2023-01-29T03:14:57.522Z,-2.40
2023-01-29T03:20:00.097Z,-2.41
2023-01-29T03:25:23.044Z,-2.68
2023-01-29T03:30:44.966Z,-3.08
2023-01-29T03:36:16.020Z,-3.05
2023-01-29T03:41:33.927Z,-3.04
2023-01-29T03:46:41.778Z,-3.04
2023-01-29T03:52:14.897Z,-3.22
2023-01-29T03:57:41.970Z,-3.17
2023-01-29T04:04:32.249Z,-3.26
2023-01-29T04:09:42.345Z,-3.23
2023-01-29T04:14:46.151Z,-3.28
2023-01-29T04:19:47.733Z,-3.40
2023-01-29T04:24:50.390Z,-3.31
2023-01-29T04:30:35.477Z,-3.27
2023-01-29T04:35:52.456Z,-3.36
2023-01-29T04:41:21.163Z,-3.34
2023-01-29T04:47:17.676Z,-3.33
2023-01-29T04:52:28.770Z,-3.29
2023-01-29T05:01:03.989Z,-3.10
2023-01-29T05:06:07.340Z,-2.99
2023-01-29T05:11:08.866Z,-3.01
2023-01-29T05:16:16.212Z,-3.11
2023-01-29T05:21:18.917Z,-3.23
2023-01-29T05:26:39.251Z,-3.26
2023-01-29T05:31:43.804Z,-3.27
2023-01-29T05:36:44.873Z,-3.40
2023-01-29T05:41:45.762Z,-3.29
2023-01-29T05:46:46.574Z,-3.34
2023-01-29T05:51:47.359Z,-3.33
2023-01-29T05:56:48.149Z,-3.28
2023-01-29T06:01:48.993Z,-3.34
2023-01-29T06:06:50.020Z,-3.37
2023-01-29T06:11:50.786Z,-3.37
2023-01-29T06:16:51.553Z,-3.42
2023-01-29T06:21:52.291Z,-3.56
2023-01-29T06:26:53.096Z,-3.59
2023-01-29T06:31:54.215Z,-3.64
2023-01-29T06:36:55.061Z,-3.49
2023-01-29T06:41:55.904Z,-3.45
2023-01-29T06:46:56.664Z,-3.56
2023-01-29T06:51:57.445Z,-3.62
2023-01-29T06:56:58.285Z,-3.77
2023-01-29T07:01:59.113Z,-3.86
2023-01-29T07:06:59.930Z,-3.91
2023-01-29T07:12:01.014Z,-3.91
2023-01-29T07:17:02.144Z,-3.97
2023-01-29T07:22:03.240Z,-3.92
2023-01-29T07:27:05.409Z,-3.88
2023-01-29T07:32:07.250Z,-3.72
2023-01-29T07:37:08.103Z,-3.60
2023-01-29T07:42:08.859Z,-3.56
2023-01-29T07:47:09.656Z,-3.63
2023-01-29T07:52:10.409Z,-3.60
2023-01-29T07:57:12.094Z,-3.47
2023-01-29T08:02:13.145Z,-3.54
2023-01-29T08:07:14.286Z,-3.91
2023-01-29T08:12:15.436Z,-3.91
2023-01-29T08:17:16.256Z,-3.55
2023-01-29T08:22:17.155Z,-3.72
2023-01-29T08:27:17.978Z,-3.80
2023-01-29T08:32:18.936Z,-3.75
2023-01-29T08:37:19.755Z,-3.58
2023-01-29T08:42:20.515Z,-3.16
2023-01-29T08:47:21.312Z,-2.91
2023-01-29T08:52:22.051Z,-2.75
2023-01-29T08:57:22.871Z,-2.63
2023-01-29T09:02:23.812Z,-2.86
2023-01-29T09:07:24.612Z,-2.94
2023-01-29T09:12:25.551Z,-2.96
2023-01-29T09:17:26.335Z,-2.82
2023-01-29T09:22:27.594Z,-2.74
2023-01-29T09:27:28.507Z,-2.80
2023-01-29T09:38:03.128Z,-2.69
2023-01-29T09:43:13.073Z,-3.02
2023-01-29T09:48:14.025Z,-3.07
2023-01-29T09:53:48.896Z,-3.15
2023-01-29T09:58:49.844Z,-3.34
2023-01-29T10:04:17.456Z,-3.44
2023-01-29T10:10:13.428Z,-3.27
2023-01-29T10:16:12.595Z,-3.31
2023-01-29T10:21:32.050Z,-3.09
2023-01-29T10:26:35.237Z,-2.57
2023-01-29T10:31:39.831Z,-2.48
2023-01-29T10:36:46.541Z,-2.56
2023-01-29T10:42:43.336Z,-2.23
2023-01-29T10:48:06.619Z,-2.13
2023-01-29T10:53:35.426Z,-2.31
2023-01-29T11:02:54.314Z,-2.24
2023-01-29T11:08:19.120Z,-2.03
2023-01-29T11:13:23.576Z,-0.96
2023-01-29T11:18:24.309Z,-0.19
2023-01-29T11:23:31.742Z,0.28
2023-01-29T11:28:47.538Z,0.94
2023-01-29T11:33:51.630Z,0.75
2023-01-29T11:39:14.668Z,1.56
2023-01-29T11:44:30.116Z,1.39
2023-01-29T11:49:33.989Z,1.26
2023-01-29T11:54:45.880Z,1.48
2023-01-29T11:59:50.981Z,0.98
2023-01-29T12:04:54.739Z,0.74
2023-01-29T12:09:57.928Z,0.89
2023-01-29T12:15:03.529Z,0.68
2023-01-29T12:20:14.276Z,0.68
2023-01-29T12:26:43.879Z,1.77
2023-01-29T12:31:58.206Z,1.01
2023-01-29T12:37:12.941Z,1.38
2023-01-29T12:42:22.277Z,1.54
2023-01-29T12:47:30.736Z,1.34
2023-01-29T12:52:46.563Z,1.04
2023-01-29T12:57:58.148Z,0.79
2023-01-29T13:03:12.730Z,0.49
2023-01-29T13:09:36.969Z,0.69
2023-01-29T13:14:47.173Z,1.69
2023-01-29T13:19:54.900Z,2.04
2023-01-29T13:25:04.638Z,2.35
2023-01-29T13:30:07.475Z,2.40
2023-01-29T13:35:16.658Z,2.14
2023-01-29T13:40:24.932Z,2.17
2023-01-29T13:45:42.664Z,2.05
2023-01-29T13:50:45.709Z,2.06
2023-01-29T13:55:46.475Z,2.11
2023-01-29T14:00:47.945Z,2.90
2023-01-29T14:05:59.869Z,2.79
2023-01-29T14:12:54.736Z,3.46
2023-01-29T14:18:20.337Z,3.44
2023-01-29T14:24:57.046Z,3.53
2023-01-29T14:30:01.800Z,3.32
2023-01-29T14:35:16.011Z,3.52
2023-01-29T14:40:23.387Z,3.11
2023-01-29T14:45:49.356Z,3.17
2023-01-29T14:50:52.674Z,3.51
2023-01-29T14:56:15.008Z,3.60
2023-01-29T15:01:38.356Z,3.22
2023-01-29T15:06:46.477Z,2.69
2023-01-29T15:14:43.718Z,2.51
2023-01-29T15:19:48.488Z,2.76
2023-01-29T15:25:07.179Z,2.67
2023-01-29T15:30:16.348Z,2.00
2023-01-29T15:35:30.262Z,2.04
2023-01-29T15:40:31.533Z,1.57
2023-01-29T15:45:34.335Z,1.51
2023-01-29T15:50:40.251Z,1.44
2023-01-29T15:55:41.745Z,1.05
2023-01-29T16:00:52.884Z,0.79
2023-01-29T16:05:54.599Z,0.92
2023-01-29T16:10:58.898Z,0.72
2023-01-29T16:16:02.326Z,0.36
2023-01-29T16:21:12.068Z,-0.16
2023-01-29T16:26:24.170Z,-0.20
2023-01-29T16:31:28.344Z,-0.30
2023-01-29T16:36:29.322Z,-0.49
2023-01-29T16:41:36.069Z,-0.77
2023-01-29T16:46:45.360Z,-0.88
2023-01-29T16:51:46.362Z,-0.77
2023-01-29T16:56:49.132Z,-0.68
2023-01-29T17:01:50.063Z,-0.63
2023-01-29T17:06:56.985Z,-0.73
2023-01-29T17:12:02.962Z,-0.82
2023-01-29T17:17:15.447Z,-1.05
2023-01-29T17:22:16.305Z,-1.17
2023-01-29T17:27:21.909Z,-1.21
2023-01-29T17:32:24.305Z,-1.06
2023-01-29T17:37:25.165Z,-1.03
2023-01-29T17:42:27.995Z,-1.01
2023-01-29T17:47:28.785Z,-1.14
2023-01-29T17:52:31.379Z,-1.29
2023-01-29T17:57:32.834Z,-1.50
2023-01-29T18:02:33.704Z,-1.54
2023-01-29T18:07:36.603Z,-1.75
2023-01-29T18:12:37.331Z,-1.87
2023-01-29T18:17:38.891Z,-1.93
2023-01-29T18:22:39.698Z,-2.25
2023-01-29T18:27:40.724Z,-2.10
2023-01-29T18:32:41.706Z,-2.09
2023-01-29T18:37:43.031Z,-2.17
2023-01-29T18:42:44.416Z,-2.11
2023-01-29T18:47:45.478Z,-2.20
2023-01-29T18:52:46.328Z,-2.13
2023-01-29T18:58:27.466Z,-2.12
2023-01-29T19:03:36.617Z,-2.23
2023-01-29T19:08:38.622Z,-2.13
2023-01-29T19:13:40.062Z,-2.17
2023-01-29T19:18:41.198Z,-2.25
2023-01-29T19:23:42.908Z,-2.17
2023-01-29T19:28:44.187Z,-2.21
2023-01-29T19:33:45.018Z,-2.46
2023-01-29T19:38:45.942Z,-2.46
2023-01-29T19:43:47.447Z,-2.48
2023-01-29T19:48:48.559Z,-2.52
2023-01-29T19:53:49.369Z,-2.47
2023-01-29T19:58:56.850Z,-2.47
2023-01-29T20:03:57.910Z,-2.33
2023-01-29T20:09:01.395Z,-2.24
2023-01-29T20:14:02.161Z,-2.22
2023-01-29T20:19:13.218Z,-2.11
2023-01-29T20:24:15.468Z,-2.06
2023-01-29T20:29:16.335Z,-1.99
2023-01-29T20:34:17.113Z,-1.82
2023-01-29T20:39:18.025Z,-1.71
2023-01-29T20:44:18.764Z,-1.68
2023-01-29T20:49:20.986Z,-1.61
2023-01-29T20:54:21.882Z,-1.57
2023-01-29T20:59:23.294Z,-1.48
2023-01-29T21:04:24.149Z,-1.32
2023-01-29T21:09:24.915Z,-1.33
2023-01-29T21:14:25.660Z,-1.11
2023-01-29T21:19:27.023Z,-1.25
2023-01-29T21:24:27.904Z,-1.35
2023-01-29T21:29:28.798Z,-1.26
2023-01-29T21:34:29.548Z,-0.95
2023-01-29T21:39:30.435Z,-1.26
2023-01-29T21:44:33.453Z,-1.33
2023-01-29T21:49:34.348Z,-1.33
2023-01-29T21:54:35.086Z,-1.27
2023-01-29T21:59:36.622Z,-1.24
2023-01-29T22:04:37.349Z,-1.23
2023-01-29T22:09:38.237Z,-1.24
2023-01-29T22:14:41.035Z,-1.25
2023-01-29T22:19:42.741Z,-1.27
2023-01-29T22:24:45.727Z,-1.28
2023-01-29T22:29:46.482Z,-1.28
2023-01-29T22:34:47.265Z,-1.23
2023-01-29T22:39:47.993Z,-1.29
2023-01-29T22:44:48.851Z,-1.26
2023-01-29T22:49:51.560Z,-1.20
2023-01-29T22:54:52.638Z,-1.25
2023-01-29T22:59:53.758Z,-1.19
2023-01-29T23:04:54.526Z,-1.21
2023-01-29T23:09:55.315Z,-1.15
2023-01-29T23:14:56.085Z,-1.11
2023-01-29T23:19:56.868Z,-0.99
2023-01-29T23:24:57.654Z,-1.12
2023-01-29T23:29:58.495Z,-1.13
2023-01-29T23:34:59.293Z,-1.13
2023-01-29T23:40:00.138Z,-1.17
2023-01-29T23:45:00.834Z,-1.06
2023-01-29T23:50:01.810Z,-0.97
2023-01-29T23:55:02.822Z,-0.90
